Zumbro Falls, Minnesota
Current Conditions -  °F | °C
As of 6:13 PM on Monday 22 Dec 2014 (Local Time) from K9MN Reporting Station
Overcast Overcast  
Wind Chill: 28°   Ceiling: 600
Heat Index: 35°   Visibility: 5mi
Dew Point: 34°   Wind: 9mph
Humidity: 97%   Direction: 90°E
Pressure: 29.58"   Gusts: 16mph
Location:  44.28°N, 92.42°W
Report Text: K9MN 230013Z AUTO 09008G14KT 040V140 5SM OVC006 02/01 A2958 RMK AO1 T00160011
Loading
Personal Weather Stations






























Interactive Weather Map New forecast layout! Learn more

10-Day Weather Forecast

Advertisements
Track Severe Weather on mobile